sensor_id;sensor_type;location;lat;lon;timestamp;pressure;altitude;pressure_sealevel;temperature;humidity
5522;BME280;2783;48.730;8.006;2024-01-15T00:00:28;99359.13;;;0.14;90.40
5522;BME280;2783;48.730;8.006;2024-01-15T00:02:53;99354.78;;;0.14;89.80
5522;BME280;2783;48.730;8.006;2024-01-15T00:05:18;99360.03;;;0.13;90.54
5522;BME280;2783;48.730;8.006;2024-01-15T00:07:44;99361.75;;;0.15;90.46
5522;BME280;2783;48.730;8.006;2024-01-15T00:10:09;99368.72;;;0.24;90.57
5522;BME280;2783;48.730;8.006;2024-01-15T00:12:35;99354.78;;;0.16;90.15
5522;BME280;2783;48.730;8.006;2024-01-15T00:15:00;99358.25;;;0.19;90.64
5522;BME280;2783;48.730;8.006;2024-01-15T00:17:26;99358.25;;;0.21;90.59
5522;BME280;2783;48.730;8.006;2024-01-15T00:19:51;99307.75;;;-0.03;90.51
5522;BME280;2783;48.730;8.006;2024-01-15T00:22:17;99346.91;;;0.29;90.89
5522;BME280;2783;48.730;8.006;2024-01-15T00:24:42;99347.78;;;0.31;90.19
5522;BME280;2783;48.730;8.006;2024-01-15T00:27:08;99346.88;;;0.34;90.34
5522;BME280;2783;48.730;8.006;2024-01-15T00:29:33;99351.25;;;0.39;90.65
5522;BME280;2783;48.730;8.006;2024-01-15T00:31:59;99346.88;;;0.40;89.89
5522;BME280;2783;48.730;8.006;2024-01-15T00:34:25;99347.75;;;0.36;90.54
5522;BME280;2783;48.730;8.006;2024-01-15T00:36:50;99346.03;;;0.36;91.34
5522;BME280;2783;48.730;8.006;2024-01-15T00:39:16;99343.41;;;0.38;90.27
5522;BME280;2783;48.730;8.006;2024-01-15T00:41:41;99354.72;;;0.40;91.73
5522;BME280;2783;48.730;8.006;2024-01-15T00:44:07;99352.13;;;0.41;91.19
5522;BME280;2783;48.730;8.006;2024-01-15T00:46:33;99347.72;;;0.43;91.26
5522;BME280;2783;48.730;8.006;2024-01-15T00:48:58;99343.41;;;0.38;92.00
5522;BME280;2783;48.730;8.006;2024-01-15T00:51:23;99328.59;;;0.22;91.31
5522;BME280;2783;48.730;8.006;2024-01-15T00:53:49;99352.13;;;0.34;92.26
5522;BME280;2783;48.730;8.006;2024-01-15T00:56:14;99322.53;;;0.17;91.74
5522;BME280;2783;48.730;8.006;2024-01-15T00:58:40;99358.22;;;0.37;92.25
5522;BME280;2783;48.730;8.006;2024-01-15T01:01:05;99355.59;;;0.37;92.38
5522;BME280;2783;48.730;8.006;2024-01-15T01:03:30;99359.97;;;0.41;92.29
5522;BME280;2783;48.730;8.006;2024-01-15T01:05:56;99357.34;;;0.37;92.53
5522;BME280;2783;48.730;8.006;2024-01-15T01:08:21;99342.53;;;0.39;92.54
5522;BME280;2783;48.730;8.006;2024-01-15T01:10:47;99339.88;;;0.42;92.59
5522;BME280;2783;48.730;8.006;2024-01-15T01:13:12;99342.50;;;0.42;92.54
5522;BME280;2783;48.730;8.006;2024-01-15T01:15:37;99332.94;;;0.41;92.03
5522;BME280;2783;48.730;8.006;2024-01-15T01:18:04;99326.84;;;0.37;92.54
5522;BME280;2783;48.730;8.006;2024-01-15T01:20:30;99321.63;;;0.36;92.25
5522;BME280;2783;48.730;8.006;2024-01-15T01:22:55;99313.81;;;0.30;92.82
5522;BME280;2783;48.730;8.006;2024-01-15T01:25:20;99308.56;;;0.33;93.72
5522;BME280;2783;48.730;8.006;2024-01-15T01:27:46;99316.34;;;0.42;92.94
5522;BME280;2783;48.730;8.006;2024-01-15T01:30:11;99285.94;;;0.21;92.62
5522;BME280;2783;48.730;8.006;2024-01-15T01:32:37;99325.06;;;0.45;93.16
5522;BME280;2783;48.730;8.006;2024-01-15T01:35:02;99325.06;;;0.42;92.23
5522;BME280;2783;48.730;8.006;2024-01-15T01:37:28;99325.94;;;0.46;92.57
5522;BME280;2783;48.730;8.006;2024-01-15T01:39:53;99322.44;;;0.47;92.98
5522;BME280;2783;48.730;8.006;2024-01-15T01:42:19;99326.81;;;0.43;93.37
5522;BME280;2783;48.730;8.006;2024-01-15T01:44:44;99283.28;;;0.24;93.27
5522;BME280;2783;48.730;8.006;2024-01-15T01:47:09;99324.19;;;0.42;93.24
5522;BME280;2783;48.730;8.006;2024-01-15T01:49:36;99326.81;;;0.42;93.27
5522;BME280;2783;48.730;8.006;2024-01-15T01:52:03;99301.56;;;0.36;93.05
5522;BME280;2783;48.730;8.006;2024-01-15T01:54:32;99318.09;;;0.47;92.94
5522;BME280;2783;48.730;8.006;2024-01-15T01:56:58;99305.03;;;0.43;93.06
5522;BME280;2783;48.730;8.006;2024-01-15T01:59:25;99310.28;;;0.41;93.52
5522;BME280;2783;48.730;8.006;2024-01-15T02:01:53;99301.53;;;0.42;94.13
5522;BME280;2783;48.730;8.006;2024-01-15T02:04:19;99299.81;;;0.34;93.94
5522;BME280;2783;48.730;8.006;2024-01-15T02:06:45;99305.06;;;0.28;94.17
5522;BME280;2783;48.730;8.006;2024-01-15T02:09:11;99294.63;;;0.22;94.69
5522;BME280;2783;48.730;8.006;2024-01-15T02:11:40;99297.25;;;0.19;94.33
5522;BME280;2783;48.730;8.006;2024-01-15T02:14:06;99290.28;;;0.18;94.79
5522;BME280;2783;48.730;8.006;2024-01-15T02:16:31;99280.69;;;0.20;95.37
5522;BME280;2783;48.730;8.006;2024-01-15T02:18:57;99286.78;;;0.17;95.27
5522;BME280;2783;48.730;8.006;2024-01-15T02:21:22;99250.28;;;-0.04;94.66
5522;BME280;2783;48.730;8.006;2024-01-15T02:23:47;99294.63;;;0.22;95.25
5522;BME280;2783;48.730;8.006;2024-01-15T02:26:13;99236.31;;;-0.06;95.10
5522;BME280;2783;48.730;8.006;2024-01-15T02:28:39;99290.25;;;0.25;94.75
5522;BME280;2783;48.730;8.006;2024-01-15T02:31:06;99263.31;;;0.10;95.33
5522;BME280;2783;48.730;8.006;2024-01-15T02:33:32;99284.16;;;0.28;94.82
5522;BME280;2783;48.730;8.006;2024-01-15T02:35:57;99283.28;;;0.26;95.23
5522;BME280;2783;48.730;8.006;2024-01-15T02:38:22;99273.72;;;0.19;95.16
5522;BME280;2783;48.730;8.006;2024-01-15T02:40:49;99292.84;;;0.27;95.51
5522;BME280;2783;48.730;8.006;2024-01-15T02:43:15;99291.09;;;0.32;95.55
5522;BME280;2783;48.730;8.006;2024-01-15T02:45:40;99285.88;;;0.32;95.38
5522;BME280;2783;48.730;8.006;2024-01-15T02:48:06;99294.56;;;0.37;96.08
5522;BME280;2783;48.730;8.006;2024-01-15T02:50:31;99294.59;;;0.34;95.70
5522;BME280;2783;48.730;8.006;2024-01-15T02:52:57;99294.56;;;0.40;95.22
5522;BME280;2783;48.730;8.006;2024-01-15T02:55:22;99290.19;;;0.43;95.33
5522;BME280;2783;48.730;8.006;2024-01-15T02:57:48;99291.94;;;0.44;95.17
5522;BME280;2783;48.730;8.006;2024-01-15T03:00:13;99278.84;;;0.46;95.80
5522;BME280;2783;48.730;8.006;2024-01-15T03:02:40;99276.25;;;0.46;95.87
5522;BME280;2783;48.730;8.006;2024-01-15T03:05:06;99277.09;;;0.45;95.62
5522;BME280;2783;48.730;8.006;2024-01-15T03:07:33;99271.88;;;0.48;95.44
5522;BME280;2783;48.730;8.006;2024-01-15T03:09:59;99267.53;;;0.42;95.78
5522;BME280;2783;48.730;8.006;2024-01-15T03:12:24;99276.25;;;0.43;95.06
5522;BME280;2783;48.730;8.006;2024-01-15T03:14:50;99279.75;;;0.40;95.18
5522;BME280;2783;48.730;8.006;2024-01-15T03:17:15;99268.44;;;0.32;95.64
5522;BME280;2783;48.730;8.006;2024-01-15T03:19:40;99276.28;;;0.34;95.39
5522;BME280;2783;48.730;8.006;2024-01-15T03:22:07;99273.63;;;0.40;95.54
5522;BME280;2783;48.730;8.006;2024-01-15T03:24:34;99269.31;;;0.36;96.95
5522;BME280;2783;48.730;8.006;2024-01-15T03:26:59;99226.69;;;0.11;96.37
5522;BME280;2783;48.730;8.006;2024-01-15T03:29:26;99265.78;;;0.43;96.43
5522;BME280;2783;48.730;8.006;2024-01-15T03:31:51;99254.44;;;0.44;96.48
5522;BME280;2783;48.730;8.006;2024-01-15T03:34:17;99253.56;;;0.45;96.68
5522;BME280;2783;48.730;8.006;2024-01-15T03:36:42;99252.69;;;0.49;96.36
5522;BME280;2783;48.730;8.006;2024-01-15T03:39:07;99248.31;;;0.49;96.57
5522;BME280;2783;48.730;8.006;2024-01-15T03:41:33;99245.69;;;0.54;96.62
5522;BME280;2783;48.730;8.006;2024-01-15T03:43:58;99240.44;;;0.57;96.60
5522;BME280;2783;48.730;8.006;2024-01-15T03:46:24;99250.91;;;0.54;95.89
5522;BME280;2783;48.730;8.006;2024-01-15T03:48:49;99252.63;;;0.55;96.03
5522;BME280;2783;48.730;8.006;2024-01-15T03:51:17;99251.78;;;0.56;96.97
5522;BME280;2783;48.730;8.006;2024-01-15T03:53:43;99236.91;;;0.58;96.30
5522;BME280;2783;48.730;8.006;2024-01-15T03:56:08;99232.59;;;0.55;96.32
5522;BME280;2783;48.730;8.006;2024-01-15T03:58:33;99230.88;;;0.54;97.09
5522;BME280;2783;48.730;8.006;2024-01-15T04:00:59;99223.84;;;0.55;96.96
5522;BME280;2783;48.730;8.006;2024-01-15T04:03:24;99224.69;;;0.60;97.06
5522;BME280;2783;48.730;8.006;2024-01-15T04:05:50;99193.47;;;0.36;96.68
5522;BME280;2783;48.730;8.006;2024-01-15T04:08:15;99224.69;;;0.63;97.34
5522;BME280;2783;48.730;8.006;2024-01-15T04:10:40;99220.31;;;0.65;96.06
5522;BME280;2783;48.730;8.006;2024-01-15T04:13:06;99210.75;;;0.61;96.65
5522;BME280;2783;48.730;8.006;2024-01-15T04:15:32;99215.06;;;0.66;95.93
5522;BME280;2783;48.730;8.006;2024-01-15T04:17:57;99175.16;;;0.37;95.97
5522;BME280;2783;48.730;8.006;2024-01-15T04:20:23;99224.63;;;0.72;95.82
5522;BME280;2783;48.730;8.006;2024-01-15T04:22:48;99226.38;;;0.70;96.28
5522;BME280;2783;48.730;8.006;2024-01-15T04:25:14;99183.78;;;0.50;96.21
5522;BME280;2783;48.730;8.006;2024-01-15T04:27:39;99214.16;;;0.75;96.19
5522;BME280;2783;48.730;8.006;2024-01-15T04:30:05;99185.53;;;0.51;95.52
5522;BME280;2783;48.730;8.006;2024-01-15T04:32:30;99217.69;;;0.71;95.98
5522;BME280;2783;48.730;8.006;2024-01-15T04:34:55;99211.56;;;0.72;95.58
5522;BME280;2783;48.730;8.006;2024-01-15T04:37:21;99211.53;;;0.75;96.06
5522;BME280;2783;48.730;8.006;2024-01-15T04:39:46;99212.44;;;0.74;96.23
5522;BME280;2783;48.730;8.006;2024-01-15T04:42:12;99208.03;;;0.77;95.70
5522;BME280;2783;48.730;8.006;2024-01-15T04:44:37;99168.94;;;0.52;95.76
5522;BME280;2783;48.730;8.006;2024-01-15T04:47:03;99165.47;;;0.54;96.14
5522;BME280;2783;48.730;8.006;2024-01-15T04:49:28;99214.13;;;0.78;95.85
5522;BME280;2783;48.730;8.006;2024-01-15T04:51:54;99204.53;;;0.80;96.08
5522;BME280;2783;48.730;8.006;2024-01-15T04:54:20;99202.75;;;0.83;96.02
5522;BME280;2783;48.730;8.006;2024-01-15T04:56:45;99194.94;;;0.80;95.87
5522;BME280;2783;48.730;8.006;2024-01-15T04:59:11;99198.41;;;0.78;95.70
5522;BME280;2783;48.730;8.006;2024-01-15T05:01:36;99191.44;;;0.80;96.28
5522;BME280;2783;48.730;8.006;2024-01-15T05:04:02;99193.19;;;0.78;95.42
5522;BME280;2783;48.730;8.006;2024-01-15T05:06:28;99147.13;;;0.51;96.10
5522;BME280;2783;48.730;8.006;2024-01-15T05:08:53;99185.34;;;0.75;96.54
5522;BME280;2783;48.730;8.006;2024-01-15T05:11:19;99174.91;;;0.73;96.21
5522;BME280;2783;48.730;8.006;2024-01-15T05:13:44;99127.19;;;0.37;97.03
5522;BME280;2783;48.730;8.006;2024-01-15T05:16:09;99175.78;;;0.74;96.96
5522;BME280;2783;48.730;8.006;2024-01-15T05:18:35;99173.19;;;0.72;96.75
5522;BME280;2783;48.730;8.006;2024-01-15T05:21:03;99169.66;;;0.75;96.33
5522;BME280;2783;48.730;8.006;2024-01-15T05:23:28;99172.28;;;0.75;97.13
5522;BME280;2783;48.730;8.006;2024-01-15T05:25:53;99131.47;;;0.50;96.64
5522;BME280;2783;48.730;8.006;2024-01-15T05:28:19;99163.56;;;0.73;96.68
5522;BME280;2783;48.730;8.006;2024-01-15T05:30:44;99155.69;;;0.79;96.31
5522;BME280;2783;48.730;8.006;2024-01-15T05:33:10;99103.53;;;0.52;97.30
5522;BME280;2783;48.730;8.006;2024-01-15T05:35:35;99151.34;;;0.75;96.96
5522;BME280;2783;48.730;8.006;2024-01-15T05:38:01;99081.06;;;0.30;96.63
5522;BME280;2783;48.730;8.006;2024-01-15T05:40:28;99139.13;;;0.77;97.80
5522;BME280;2783;48.730;8.006;2024-01-15T05:42:53;99108.75;;;0.56;97.23
5522;BME280;2783;48.730;8.006;2024-01-15T05:45:19;99151.28;;;0.81;97.24
5522;BME280;2783;48.730;8.006;2024-01-15T05:47:44;99146.06;;;0.78;97.06
5522;BME280;2783;48.730;8.006;2024-01-15T05:50:09;99147.84;;;0.79;96.19
5522;BME280;2783;48.730;8.006;2024-01-15T05:52:35;99143.44;;;0.79;97.45
5522;BME280;2783;48.730;8.006;2024-01-15T05:55:01;99142.56;;;0.82;96.34
5522;BME280;2783;48.730;8.006;2024-01-15T05:57:26;99133.81;;;0.83;96.37
5522;BME280;2783;48.730;8.006;2024-01-15T05:59:52;99139.03;;;0.84;96.38
5522;BME280;2783;48.730;8.006;2024-01-15T06:02:17;99118.22;;;0.74;96.45
5522;BME280;2783;48.730;8.006;2024-01-15T06:04:42;99138.19;;;0.84;96.45
5522;BME280;2783;48.730;8.006;2024-01-15T06:07:08;99123.38;;;0.81;95.91
5522;BME280;2783;48.730;8.006;2024-01-15T06:09:33;99121.63;;;0.83;96.23
5522;BME280;2783;48.730;8.006;2024-01-15T06:11:59;99121.59;;;0.85;96.07
5522;BME280;2783;48.730;8.006;2024-01-15T06:14:24;99107.63;;;0.86;95.97
5522;BME280;2783;48.730;8.006;2024-01-15T06:16:49;99082.56;;;0.62;96.37
5522;BME280;2783;48.730;8.006;2024-01-15T06:19:15;99107.63;;;0.86;96.34
5522;BME280;2783;48.730;8.006;2024-01-15T06:21:40;99105.00;;;0.86;95.64
5522;BME280;2783;48.730;8.006;2024-01-15T06:24:06;99114.56;;;0.91;95.43
5522;BME280;2783;48.730;8.006;2024-01-15T06:26:31;99126.78;;;0.94;95.72
5522;BME280;2783;48.730;8.006;2024-01-15T06:28:57;99138.09;;;0.94;95.84
5522;BME280;2783;48.730;8.006;2024-01-15T06:31:22;99128.50;;;0.95;95.07
5522;BME280;2783;48.730;8.006;2024-01-15T06:33:47;99125.88;;;0.96;96.23
5522;BME280;2783;48.730;8.006;2024-01-15T06:36:14;99079.81;;;0.74;95.12
5522;BME280;2783;48.730;8.006;2024-01-15T06:38:42;99119.72;;;1.02;95.12
5522;BME280;2783;48.730;8.006;2024-01-15T06:41:08;99111.88;;;1.02;95.59
5522;BME280;2783;48.730;8.006;2024-01-15T06:43:33;99079.72;;;0.85;95.41
5522;BME280;2783;48.730;8.006;2024-01-15T06:45:59;99107.44;;;1.04;94.62
5522;BME280;2783;48.730;8.006;2024-01-15T06:48:24;99092.69;;;1.00;94.33
5522;BME280;2783;48.730;8.006;2024-01-15T06:50:50;99074.41;;;0.92;94.76
5522;BME280;2783;48.730;8.006;2024-01-15T06:53:15;99093.53;;;1.02;94.47
5522;BME280;2783;48.730;8.006;2024-01-15T06:55:41;99099.53;;;1.11;94.69
5522;BME280;2783;48.730;8.006;2024-01-15T06:58:06;99102.19;;;1.10;93.96
5522;BME280;2783;48.730;8.006;2024-01-15T07:00:32;99097.81;;;1.12;93.82
5522;BME280;2783;48.730;8.006;2024-01-15T07:02:57;99096.88;;;1.16;94.53
5522;BME280;2783;48.730;8.006;2024-01-15T07:05:23;99068.28;;;0.95;93.98
5522;BME280;2783;48.730;8.006;2024-01-15T07:07:49;99093.41;;;1.17;93.64
5522;BME280;2783;48.730;8.006;2024-01-15T07:10:15;99101.22;;;1.20;94.48
5522;BME280;2783;48.730;8.006;2024-01-15T07:12:43;99108.19;;;1.19;93.55
5522;BME280;2783;48.730;8.006;2024-01-15T07:15:09;99108.16;;;1.21;93.47
5522;BME280;2783;48.730;8.006;2024-01-15T07:17:35;99121.25;;;1.21;93.35
5522;BME280;2783;48.730;8.006;2024-01-15T07:20:01;99123.88;;;1.22;93.47
5522;BME280;2783;48.730;8.006;2024-01-15T07:22:27;99090.06;;;0.98;93.72
5522;BME280;2783;48.730;8.006;2024-01-15T07:24:52;99129.97;;;1.23;93.57
5522;BME280;2783;48.730;8.006;2024-01-15T07:27:18;99136.94;;;1.24;93.35
5522;BME280;2783;48.730;8.006;2024-01-15T07:29:43;99134.34;;;1.22;93.37
5522;BME280;2783;48.730;8.006;2024-01-15T07:32:09;99143.06;;;1.23;94.46
5522;BME280;2783;48.730;8.006;2024-01-15T07:34:35;99121.41;;;1.06;94.09
5522;BME280;2783;48.730;8.006;2024-01-15T07:37:00;99150.88;;;1.29;94.38
5522;BME280;2783;48.730;8.006;2024-01-15T07:39:26;99152.59;;;1.33;93.93
5522;BME280;2783;48.730;8.006;2024-01-15T07:41:54;99156.09;;;1.29;94.41
5522;BME280;2783;48.730;8.006;2024-01-15T07:44:19;99155.25;;;1.25;94.69
5522;BME280;2783;48.730;8.006;2024-01-15T07:46:45;99154.41;;;1.25;94.55
5522;BME280;2783;48.730;8.006;2024-01-15T07:49:11;99153.50;;;1.29;94.02
5522;BME280;2783;48.730;8.006;2024-01-15T07:51:36;99154.34;;;1.31;94.69
5522;BME280;2783;48.730;8.006;2024-01-15T07:54:02;99148.19;;;1.37;94.81
5522;BME280;2783;48.730;8.006;2024-01-15T07:56:27;99158.66;;;1.37;93.77
5522;BME280;2783;48.730;8.006;2024-01-15T07:58:53;99130.84;;;1.22;94.67
5522;BME280;2783;48.730;8.006;2024-01-15T08:01:18;99149.00;;;1.40;94.41
5522;BME280;2783;48.730;8.006;2024-01-15T08:03:44;99143.75;;;1.40;94.40
5522;BME280;2783;48.730;8.006;2024-01-15T08:06:09;99148.13;;;1.43;94.23
5522;BME280;2783;48.730;8.006;2024-01-15T08:08:35;99137.63;;;1.43;94.45
5522;BME280;2783;48.730;8.006;2024-01-15T08:11:01;99125.56;;;1.28;94.78
5522;BME280;2783;48.730;8.006;2024-01-15T08:13:26;99136.72;;;1.45;94.81
5522;BME280;2783;48.730;8.006;2024-01-15T08:15:52;99129.75;;;1.46;95.10
5522;BME280;2783;48.730;8.006;2024-01-15T08:18:17;99081.97;;;1.22;94.31
5522;BME280;2783;48.730;8.006;2024-01-15T08:20:43;99134.09;;;1.48;94.45
5522;BME280;2783;48.730;8.006;2024-01-15T08:23:08;99143.66;;;1.51;94.97
5522;BME280;2783;48.730;8.006;2024-01-15T08:25:34;99135.75;;;1.55;95.48
5522;BME280;2783;48.730;8.006;2024-01-15T08:28:00;99072.41;;;1.20;94.65
5522;BME280;2783;48.730;8.006;2024-01-15T08:30:25;99127.78;;;1.64;94.89
5522;BME280;2783;48.730;8.006;2024-01-15T08:32:56;99124.31;;;1.62;95.21
5522;BME280;2783;48.730;8.006;2024-01-15T08:35:22;99133.91;;;1.66;94.84
5522;BME280;2783;48.730;8.006;2024-01-15T08:37:51;99131.22;;;1.69;94.62
5522;BME280;2783;48.730;8.006;2024-01-15T08:40:17;99085.19;;;1.47;94.35
5522;BME280;2783;48.730;8.006;2024-01-15T08:42:43;99129.44;;;1.73;95.36
5522;BME280;2783;48.730;8.006;2024-01-15T08:45:09;99044.34;;;1.31;94.31
5522;BME280;2783;48.730;8.006;2024-01-15T08:47:35;99105.84;;;1.74;94.94
5522;BME280;2783;48.730;8.006;2024-01-15T08:50:01;99097.88;;;1.80;94.31
5522;BME280;2783;48.730;8.006;2024-01-15T08:52:27;99107.44;;;1.86;95.03
5522;BME280;2783;48.730;8.006;2024-01-15T08:54:52;99075.19;;;1.79;94.51
5522;BME280;2783;48.730;8.006;2024-01-15T08:57:18;99101.03;;;2.06;94.38
5522;BME280;2783;48.730;8.006;2024-01-15T08:59:43;99068.13;;;1.84;94.24
5522;BME280;2783;48.730;8.006;2024-01-15T09:02:10;99101.00;;;2.09;94.83
5522;BME280;2783;48.730;8.006;2024-01-15T09:04:35;99099.25;;;2.10;93.79
5522;BME280;2783;48.730;8.006;2024-01-15T09:07:01;99016.78;;;1.71;94.39
5522;BME280;2783;48.730;8.006;2024-01-15T09:09:27;99086.84;;;2.22;94.25
5522;BME280;2783;48.730;8.006;2024-01-15T09:11:52;99081.69;;;2.15;94.36
5522;BME280;2783;48.730;8.006;2024-01-15T09:14:18;99082.50;;;2.18;94.47
5522;BME280;2783;48.730;8.006;2024-01-15T09:16:43;99083.38;;;2.20;94.38
5522;BME280;2783;48.730;8.006;2024-01-15T09:19:09;99065.84;;;2.22;94.74
5522;BME280;2783;48.730;8.006;2024-01-15T09:21:34;99066.63;;;2.29;94.29
5522;BME280;2783;48.730;8.006;2024-01-15T09:23:59;99067.41;;;2.35;93.78
5522;BME280;2783;48.730;8.006;2024-01-15T09:26:26;99068.22;;;2.37;93.42
5522;BME280;2783;48.730;8.006;2024-01-15T09:28:52;99062.09;;;2.40;92.79
5522;BME280;2783;48.730;8.006;2024-01-15T09:31:17;99075.19;;;2.41;93.13
5522;BME280;2783;48.730;8.006;2024-01-15T09:33:44;99066.31;;;2.50;92.33
5522;BME280;2783;48.730;8.006;2024-01-15T09:36:10;99040.34;;;2.32;92.03
5522;BME280;2783;48.730;8.006;2024-01-15T09:38:35;99074.16;;;2.51;91.99
5522;BME280;2783;48.730;8.006;2024-01-15T09:41:01;99072.44;;;2.47;92.17
5522;BME280;2783;48.730;8.006;2024-01-15T09:43:27;99049.00;;;2.37;92.22
5522;BME280;2783;48.730;8.006;2024-01-15T09:45:53;99056.88;;;2.38;92.40
5522;BME280;2783;48.730;8.006;2024-01-15T09:48:19;99079.41;;;2.50;92.67
5522;BME280;2783;48.730;8.006;2024-01-15T09:50:45;99041.25;;;2.29;92.93
5522;BME280;2783;48.730;8.006;2024-01-15T09:53:11;99081.16;;;2.49;92.37
5522;BME280;2783;48.730;8.006;2024-01-15T09:55:38;99074.16;;;2.51;92.77
5522;BME280;2783;48.730;8.006;2024-01-15T09:58:03;99067.09;;;2.55;92.83
5522;BME280;2783;48.730;8.006;2024-01-15T10:00:29;99075.91;;;2.49;93.73
5522;BME280;2783;48.730;8.006;2024-01-15T10:02:56;99066.41;;;2.42;94.26
5522;BME280;2783;48.730;8.006;2024-01-15T10:05:22;99062.97;;;2.40;94.58
5522;BME280;2783;48.730;8.006;2024-01-15T10:07:48;99054.19;;;2.41;95.69
5522;BME280;2783;48.730;8.006;2024-01-15T10:10:16;99044.59;;;2.40;95.68
5522;BME280;2783;48.730;8.006;2024-01-15T10:12:42;99044.59;;;2.37;95.88
5522;BME280;2783;48.730;8.006;2024-01-15T10:15:10;98998.63;;;2.15;96.44
5522;BME280;2783;48.730;8.006;2024-01-15T10:17:38;99042.75;;;2.45;96.04
5522;BME280;2783;48.730;8.006;2024-01-15T10:20:08;99033.88;;;2.52;95.72
5522;BME280;2783;48.730;8.006;2024-01-15T10:22:35;99013.91;;;2.45;96.07
5522;BME280;2783;48.730;8.006;2024-01-15T10:25:04;99021.47;;;2.62;95.56
5522;BME280;2783;48.730;8.006;2024-01-15T10:27:29;99023.19;;;2.64;94.85
5522;BME280;2783;48.730;8.006;2024-01-15T10:29:59;99012.63;;;2.67;94.44
5522;BME280;2783;48.730;8.006;2024-01-15T10:32:25;99014.34;;;2.68;93.56
5522;BME280;2783;48.730;8.006;2024-01-15T10:34:52;99023.91;;;2.72;94.15
5522;BME280;2783;48.730;8.006;2024-01-15T10:37:17;99015.91;;;2.79;94.07
5522;BME280;2783;48.730;8.006;2024-01-15T10:39:43;99008.88;;;2.81;93.70
5522;BME280;2783;48.730;8.006;2024-01-15T10:42:09;99008.00;;;2.82;93.26
5522;BME280;2783;48.730;8.006;2024-01-15T10:44:35;99014.03;;;2.88;93.22
5522;BME280;2783;48.730;8.006;2024-01-15T10:47:01;99013.13;;;2.89;92.14
5522;BME280;2783;48.730;8.006;2024-01-15T10:49:26;99014.00;;;2.90;92.24
5522;BME280;2783;48.730;8.006;2024-01-15T10:51:53;99012.34;;;2.84;92.80
5522;BME280;2783;48.730;8.006;2024-01-15T10:54:20;99014.09;;;2.84;94.00
5522;BME280;2783;48.730;8.006;2024-01-15T10:56:47;99013.28;;;2.82;95.25
5522;BME280;2783;48.730;8.006;2024-01-15T10:59:12;99022.88;;;2.83;95.25
5522;BME280;2783;48.730;8.006;2024-01-15T11:01:38;99019.31;;;2.87;95.88
5522;BME280;2783;48.730;8.006;2024-01-15T11:04:05;99026.28;;;2.88;96.49
5522;BME280;2783;48.730;8.006;2024-01-15T11:06:42;99007.44;;;2.64;96.58
5522;BME280;2783;48.730;8.006;2024-01-15T11:09:08;99032.50;;;2.82;97.12
5522;BME280;2783;48.730;8.006;2024-01-15T11:11:40;99020.28;;;2.81;98.15
5522;BME280;2783;48.730;8.006;2024-01-15T11:14:06;99010.66;;;2.82;98.78
5522;BME280;2783;48.730;8.006;2024-01-15T11:16:54;99011.50;;;2.81;99.14
5522;BME280;2783;48.730;8.006;2024-01-15T11:19:21;99013.22;;;2.85;99.85
5522;BME280;2783;48.730;8.006;2024-01-15T11:21:47;98977.59;;;2.68;100.00
5522;BME280;2783;48.730;8.006;2024-01-15T11:24:35;99015.72;;;2.91;100.00
5522;BME280;2783;48.730;8.006;2024-01-15T11:27:01;99006.06;;;2.93;100.00
5522;BME280;2783;48.730;8.006;2024-01-15T11:31:56;99000.78;;;2.94;100.00
5522;BME280;2783;48.730;8.006;2024-01-15T11:34:54;99002.44;;;3.00;100.00
5522;BME280;2783;48.730;8.006;2024-01-15T11:37:23;99009.53;;;2.95;100.00
5522;BME280;2783;48.730;8.006;2024-01-15T11:39:53;99015.78;;;2.88;100.00
5522;BME280;2783;48.730;8.006;2024-01-15T11:42:22;99015.78;;;2.88;100.00
5522;BME280;2783;48.730;8.006;2024-01-15T11:44:49;99010.53;;;2.88;100.00
5522;BME280;2783;48.730;8.006;2024-01-15T11:47:14;99009.63;;;2.89;100.00
5522;BME280;2783;48.730;8.006;2024-01-15T11:52:25;99012.09;;;2.98;100.00
5522;BME280;2783;48.730;8.006;2024-01-15T12:00:10;99014.31;;;2.72;100.00
5522;BME280;2783;48.730;8.006;2024-01-15T12:02:36;98988.06;;;2.72;100.00
5522;BME280;2783;48.730;8.006;2024-01-15T12:05:02;99029.63;;;2.96;100.00
5522;BME280;2783;48.730;8.006;2024-01-15T12:07:28;99024.38;;;2.96;100.00
5522;BME280;2783;48.730;8.006;2024-01-15T12:09:53;99031.31;;;3.00;100.00
5522;BME280;2783;48.730;8.006;2024-01-15T12:12:44;99027.72;;;3.04;100.00
5522;BME280;2783;48.730;8.006;2024-01-15T12:15:12;99000.97;;;2.82;100.00
5522;BME280;2783;48.730;8.006;2024-01-15T12:17:38;99038.94;;;3.12;100.00
5522;BME280;2783;48.730;8.006;2024-01-15T12:20:04;99038.00;;;3.16;100.00
5522;BME280;2783;48.730;8.006;2024-01-15T12:22:30;99038.00;;;3.16;100.00
5522;BME280;2783;48.730;8.006;2024-01-15T12:24:55;99032.88;;;3.10;100.00
5522;BME280;2783;48.730;8.006;2024-01-15T12:27:23;99001.06;;;2.78;100.00
5522;BME280;2783;48.730;8.006;2024-01-15T12:29:48;99031.19;;;3.06;100.00
5522;BME280;2783;48.730;8.006;2024-01-15T12:32:13;99046.06;;;3.07;100.00
5522;BME280;2783;48.730;8.006;2024-01-15T12:34:39;99045.19;;;3.08;100.00
5522;BME280;2783;48.730;8.006;2024-01-15T12:37:07;99041.56;;;3.12;100.00
5522;BME280;2783;48.730;8.006;2024-01-15T12:39:34;99040.69;;;3.13;100.00
5522;BME280;2783;48.730;8.006;2024-01-15T12:42:01;98998.91;;;3.01;100.00
5522;BME280;2783;48.730;8.006;2024-01-15T12:44:26;99044.94;;;3.20;100.00
5522;BME280;2783;48.730;8.006;2024-01-15T12:46:52;99049.41;;;3.15;100.00
5522;BME280;2783;48.730;8.006;2024-01-15T12:49:17;99048.56;;;3.14;100.00
5522;BME280;2783;48.730;8.006;2024-01-15T12:51:43;99047.72;;;3.12;100.00
5522;BME280;2783;48.730;8.006;2024-01-15T12:54:08;99048.66;;;3.10;100.00
5522;BME280;2783;48.730;8.006;2024-01-15T12:56:33;99048.72;;;3.04;100.00
5522;BME280;2783;48.730;8.006;2024-01-15T12:58:59;99054.84;;;3.06;100.00
5522;BME280;2783;48.730;8.006;2024-01-15T13:01:24;99059.19;;;3.07;100.00
5522;BME280;2783;48.730;8.006;2024-01-15T13:03:50;99059.94;;;3.13;100.00
5522;BME280;2783;48.730;8.006;2024-01-15T13:06:15;99055.63;;;3.11;100.00
5522;BME280;2783;48.730;8.006;2024-01-15T13:08:40;99059.19;;;3.07;100.00
5522;BME280;2783;48.730;8.006;2024-01-15T13:11:06;99057.44;;;3.07;100.00
5522;BME280;2783;48.730;8.006;2024-01-15T13:13:31;99048.66;;;3.10;100.00
5522;BME280;2783;48.730;8.006;2024-01-15T13:15:59;99059.16;;;3.10;100.00
5522;BME280;2783;48.730;8.006;2024-01-15T13:18:25;99062.56;;;3.13;100.00
5522;BME280;2783;48.730;8.006;2024-01-15T13:20:51;99062.59;;;3.12;100.00
5522;BME280;2783;48.730;8.006;2024-01-15T13:23:16;99071.44;;;3.08;100.00
5522;BME280;2783;48.730;8.006;2024-01-15T13:25:42;99080.16;;;3.10;100.00
5522;BME280;2783;48.730;8.006;2024-01-15T13:28:07;99079.22;;;3.12;100.00
5522;BME280;2783;48.730;8.006;2024-01-15T13:30:33;99081.75;;;3.18;100.00
5522;BME280;2783;48.730;8.006;2024-01-15T13:32:59;99074.78;;;3.16;100.00
5522;BME280;2783;48.730;8.006;2024-01-15T13:35:29;99087.03;;;3.17;100.00